sensor_id;sensor_type;location;lat;lon;timestamp;temperature;humidity
59961;DHT22;55902;-37.980;-63.602;2023-06-22T00:01:47;8.20;99.90
59961;DHT22;55902;-37.980;-63.602;2023-06-22T00:04:14;8.10;99.90
59961;DHT22;55902;-37.980;-63.602;2023-06-22T00:06:41;8.10;99.90
59961;DHT22;55902;-37.980;-63.602;2023-06-22T00:15:51;8.00;99.90
59961;DHT22;55902;-37.980;-63.602;2023-06-22T00:25:39;7.90;99.90
59961;DHT22;55902;-37.980;-63.602;2023-06-22T00:28:07;7.90;99.90
59961;DHT22;55902;-37.980;-63.602;2023-06-22T00:30:35;7.90;99.90
59961;DHT22;55902;-37.980;-63.602;2023-06-22T00:33:02;7.90;99.90
59961;DHT22;55902;-37.980;-63.602;2023-06-22T00:35:29;7.90;99.90
59961;DHT22;55902;-37.980;-63.602;2023-06-22T00:38:00;7.90;99.90
59961;DHT22;55902;-37.980;-63.602;2023-06-22T00:40:32;7.90;99.90
59961;DHT22;55902;-37.980;-63.602;2023-06-22T00:43:00;7.90;99.90
59961;DHT22;55902;-37.980;-63.602;2023-06-22T00:45:28;7.90;99.90
59961;DHT22;55902;-37.980;-63.602;2023-06-22T00:47:59;7.90;99.90
59961;DHT22;55902;-37.980;-63.602;2023-06-22T00:50:28;7.90;99.90
59961;DHT22;55902;-37.980;-63.602;2023-06-22T00:53:03;7.90;99.90
59961;DHT22;55902;-37.980;-63.602;2023-06-22T00:55:36;7.90;99.90
59961;DHT22;55902;-37.980;-63.602;2023-06-22T00:58:06;7.80;99.90
59961;DHT22;55902;-37.980;-63.602;2023-06-22T01:00:37;7.90;99.90
59961;DHT22;55902;-37.980;-63.602;2023-06-22T01:03:06;7.80;99.90
59961;DHT22;55902;-37.980;-63.602;2023-06-22T01:05:37;7.80;99.90
59961;DHT22;55902;-37.980;-63.602;2023-06-22T01:10:51;7.80;99.90
59961;DHT22;55902;-37.980;-63.602;2023-06-22T01:13:30;7.80;99.90
59961;DHT22;55902;-37.980;-63.602;2023-06-22T01:18:30;7.80;99.90
59961;DHT22;55902;-37.980;-63.602;2023-06-22T01:20:57;7.80;99.90
59961;DHT22;55902;-37.980;-63.602;2023-06-22T01:26:50;7.80;99.90
59961;DHT22;55902;-37.980;-63.602;2023-06-22T01:29:21;7.70;99.90
59961;DHT22;55902;-37.980;-63.602;2023-06-22T01:31:50;7.70;99.90
59961;DHT22;55902;-37.980;-63.602;2023-06-22T01:34:19;7.80;99.90
59961;DHT22;55902;-37.980;-63.602;2023-06-22T01:36:47;7.80;99.90
59961;DHT22;55902;-37.980;-63.602;2023-06-22T01:39:14;7.90;99.90
59961;DHT22;55902;-37.980;-63.602;2023-06-22T01:41:43;8.00;99.90
59961;DHT22;55902;-37.980;-63.602;2023-06-22T01:44:11;8.10;99.90
59961;DHT22;55902;-37.980;-63.602;2023-06-22T01:46:40;8.10;99.90
59961;DHT22;55902;-37.980;-63.602;2023-06-22T01:49:07;8.10;99.90
59961;DHT22;55902;-37.980;-63.602;2023-06-22T01:51:35;8.20;99.90
59961;DHT22;55902;-37.980;-63.602;2023-06-22T01:54:02;8.20;99.90
59961;DHT22;55902;-37.980;-63.602;2023-06-22T01:56:29;8.20;99.90
59961;DHT22;55902;-37.980;-63.602;2023-06-22T01:59:20;8.30;99.90
59961;DHT22;55902;-37.980;-63.602;2023-06-22T02:02:09;8.30;99.90
59961;DHT22;55902;-37.980;-63.602;2023-06-22T02:05:07;8.40;99.90
59961;DHT22;55902;-37.980;-63.602;2023-06-22T02:10:58;8.50;99.90
59961;DHT22;55902;-37.980;-63.602;2023-06-22T02:13:28;8.50;99.90
59961;DHT22;55902;-37.980;-63.602;2023-06-22T02:15:56;8.50;99.90
59961;DHT22;55902;-37.980;-63.602;2023-06-22T02:18:23;8.50;99.90
59961;DHT22;55902;-37.980;-63.602;2023-06-22T02:20:51;8.60;99.90
59961;DHT22;55902;-37.980;-63.602;2023-06-22T02:23:20;8.60;99.90
59961;DHT22;55902;-37.980;-63.602;2023-06-22T02:29:04;8.60;99.90
59961;DHT22;55902;-37.980;-63.602;2023-06-22T02:31:31;8.60;99.90
59961;DHT22;55902;-37.980;-63.602;2023-06-22T02:33:59;8.60;99.90
59961;DHT22;55902;-37.980;-63.602;2023-06-22T02:36:29;8.60;99.90
59961;DHT22;55902;-37.980;-63.602;2023-06-22T02:38:57;8.50;99.90
59961;DHT22;55902;-37.980;-63.602;2023-06-22T02:41:27;8.50;99.90
59961;DHT22;55902;-37.980;-63.602;2023-06-22T02:43:55;8.40;99.90
59961;DHT22;55902;-37.980;-63.602;2023-06-22T02:46:23;8.40;99.90
59961;DHT22;55902;-37.980;-63.602;2023-06-22T02:48:50;8.30;99.90
59961;DHT22;55902;-37.980;-63.602;2023-06-22T02:51:17;8.30;99.90
59961;DHT22;55902;-37.980;-63.602;2023-06-22T02:53:44;8.40;99.90
59961;DHT22;55902;-37.980;-63.602;2023-06-22T02:56:11;8.40;99.90
59961;DHT22;55902;-37.980;-63.602;2023-06-22T03:02:00;8.40;99.90
59961;DHT22;55902;-37.980;-63.602;2023-06-22T03:04:28;8.40;99.90
59961;DHT22;55902;-37.980;-63.602;2023-06-22T03:06:57;8.40;99.90
59961;DHT22;55902;-37.980;-63.602;2023-06-22T03:09:30;8.40;99.90
59961;DHT22;55902;-37.980;-63.602;2023-06-22T03:11:57;8.40;99.90
59961;DHT22;55902;-37.980;-63.602;2023-06-22T03:14:24;8.40;99.90
59961;DHT22;55902;-37.980;-63.602;2023-06-22T03:16:51;8.30;99.90
59961;DHT22;55902;-37.980;-63.602;2023-06-22T03:19:21;8.30;99.90
59961;DHT22;55902;-37.980;-63.602;2023-06-22T03:21:48;8.30;99.90
59961;DHT22;55902;-37.980;-63.602;2023-06-22T03:24:15;8.30;99.90
59961;DHT22;55902;-37.980;-63.602;2023-06-22T03:26:42;8.40;99.90
59961;DHT22;55902;-37.980;-63.602;2023-06-22T03:29:12;8.40;99.90
59961;DHT22;55902;-37.980;-63.602;2023-06-22T03:31:40;8.50;99.90
59961;DHT22;55902;-37.980;-63.602;2023-06-22T03:34:07;8.50;99.90
59961;DHT22;55902;-37.980;-63.602;2023-06-22T03:36:34;8.60;99.90
59961;DHT22;55902;-37.980;-63.602;2023-06-22T03:39:01;8.70;99.90
59961;DHT22;55902;-37.980;-63.602;2023-06-22T03:41:28;8.70;99.90
59961;DHT22;55902;-37.980;-63.602;2023-06-22T03:43:55;8.70;99.90
59961;DHT22;55902;-37.980;-63.602;2023-06-22T03:46:22;8.80;99.90
59961;DHT22;55902;-37.980;-63.602;2023-06-22T03:48:49;8.90;99.90
59961;DHT22;55902;-37.980;-63.602;2023-06-22T03:51:16;8.90;99.90
59961;DHT22;55902;-37.980;-63.602;2023-06-22T03:53:43;9.00;99.90
59961;DHT22;55902;-37.980;-63.602;2023-06-22T03:56:10;9.00;99.90
59961;DHT22;55902;-37.980;-63.602;2023-06-22T04:08:44;9.20;99.90
59961;DHT22;55902;-37.980;-63.602;2023-06-22T04:11:17;9.20;99.90
59961;DHT22;55902;-37.980;-63.602;2023-06-22T04:13:45;9.30;99.90
59961;DHT22;55902;-37.980;-63.602;2023-06-22T04:16:12;9.40;99.90
59961;DHT22;55902;-37.980;-63.602;2023-06-22T04:18:39;9.30;99.90
59961;DHT22;55902;-37.980;-63.602;2023-06-22T04:21:06;9.40;99.90
59961;DHT22;55902;-37.980;-63.602;2023-06-22T04:23:33;9.40;99.90
59961;DHT22;55902;-37.980;-63.602;2023-06-22T04:26:00;9.40;99.90
59961;DHT22;55902;-37.980;-63.602;2023-06-22T04:28:27;9.40;99.90
59961;DHT22;55902;-37.980;-63.602;2023-06-22T04:30:54;9.50;99.90
59961;DHT22;55902;-37.980;-63.602;2023-06-22T04:33:24;9.50;99.90
59961;DHT22;55902;-37.980;-63.602;2023-06-22T04:35:51;9.50;99.90
59961;DHT22;55902;-37.980;-63.602;2023-06-22T04:38:18;9.60;99.90
59961;DHT22;55902;-37.980;-63.602;2023-06-22T04:40:47;9.60;99.90
59961;DHT22;55902;-37.980;-63.602;2023-06-22T04:43:14;9.60;99.90
59961;DHT22;55902;-37.980;-63.602;2023-06-22T04:45:42;9.60;99.90
59961;DHT22;55902;-37.980;-63.602;2023-06-22T04:48:09;9.60;99.90
59961;DHT22;55902;-37.980;-63.602;2023-06-22T04:53:57;9.70;99.90
59961;DHT22;55902;-37.980;-63.602;2023-06-22T04:56:27;9.70;99.90
59961;DHT22;55902;-37.980;-63.602;2023-06-22T04:58:54;9.70;99.90
59961;DHT22;55902;-37.980;-63.602;2023-06-22T05:01:24;9.70;99.90
59961;DHT22;55902;-37.980;-63.602;2023-06-22T05:03:52;9.70;99.90
59961;DHT22;55902;-37.980;-63.602;2023-06-22T05:06:24;9.80;99.90
59961;DHT22;55902;-37.980;-63.602;2023-06-22T05:08:53;9.80;99.90
59961;DHT22;55902;-37.980;-63.602;2023-06-22T05:11:27;9.80;99.90
59961;DHT22;55902;-37.980;-63.602;2023-06-22T05:13:55;9.80;99.90
59961;DHT22;55902;-37.980;-63.602;2023-06-22T05:16:23;9.80;99.90
59961;DHT22;55902;-37.980;-63.602;2023-06-22T05:18:54;9.80;99.90
59961;DHT22;55902;-37.980;-63.602;2023-06-22T05:21:26;9.80;99.90
59961;DHT22;55902;-37.980;-63.602;2023-06-22T05:23:54;9.80;99.90
59961;DHT22;55902;-37.980;-63.602;2023-06-22T05:26:22;9.70;99.90
59961;DHT22;55902;-37.980;-63.602;2023-06-22T05:28:49;9.70;99.90
59961;DHT22;55902;-37.980;-63.602;2023-06-22T05:31:17;9.70;99.90
59961;DHT22;55902;-37.980;-63.602;2023-06-22T05:33:46;9.70;99.90
59961;DHT22;55902;-37.980;-63.602;2023-06-22T05:36:14;9.70;99.90
59961;DHT22;55902;-37.980;-63.602;2023-06-22T05:38:42;9.60;99.90
59961;DHT22;55902;-37.980;-63.602;2023-06-22T05:41:09;9.60;99.90
59961;DHT22;55902;-37.980;-63.602;2023-06-22T05:43:36;9.60;99.90
59961;DHT22;55902;-37.980;-63.602;2023-06-22T05:46:04;9.60;99.90
59961;DHT22;55902;-37.980;-63.602;2023-06-22T05:48:31;9.60;99.90
59961;DHT22;55902;-37.980;-63.602;2023-06-22T05:50:58;9.70;99.90
59961;DHT22;55902;-37.980;-63.602;2023-06-22T05:53:25;9.60;99.90
59961;DHT22;55902;-37.980;-63.602;2023-06-22T05:55:53;9.60;99.90
59961;DHT22;55902;-37.980;-63.602;2023-06-22T05:58:20;9.70;99.90
59961;DHT22;55902;-37.980;-63.602;2023-06-22T06:00:47;9.60;99.90
59961;DHT22;55902;-37.980;-63.602;2023-06-22T06:03:14;9.60;99.90
59961;DHT22;55902;-37.980;-63.602;2023-06-22T06:05:43;9.60;99.90
59961;DHT22;55902;-37.980;-63.602;2023-06-22T06:08:12;9.50;99.90
59961;DHT22;55902;-37.980;-63.602;2023-06-22T06:20:32;9.60;99.90
59961;DHT22;55902;-37.980;-63.602;2023-06-22T06:23:00;9.70;99.90
59961;DHT22;55902;-37.980;-63.602;2023-06-22T06:25:28;9.70;99.90
59961;DHT22;55902;-37.980;-63.602;2023-06-22T06:27:55;9.70;99.90
59961;DHT22;55902;-37.980;-63.602;2023-06-22T06:30:49;9.70;99.90
59961;DHT22;55902;-37.980;-63.602;2023-06-22T06:33:18;9.60;99.90
59961;DHT22;55902;-37.980;-63.602;2023-06-22T06:35:47;9.70;99.90
59961;DHT22;55902;-37.980;-63.602;2023-06-22T06:38:14;9.60;99.90
59961;DHT22;55902;-37.980;-63.602;2023-06-22T06:40:41;9.60;99.90
59961;DHT22;55902;-37.980;-63.602;2023-06-22T06:43:08;9.60;99.90
59961;DHT22;55902;-37.980;-63.602;2023-06-22T06:45:35;9.60;99.90
59961;DHT22;55902;-37.980;-63.602;2023-06-22T06:48:02;9.60;99.90
59961;DHT22;55902;-37.980;-63.602;2023-06-22T06:50:29;9.60;99.90
59961;DHT22;55902;-37.980;-63.602;2023-06-22T06:52:56;9.60;99.90
59961;DHT22;55902;-37.980;-63.602;2023-06-22T06:55:25;9.60;99.90
59961;DHT22;55902;-37.980;-63.602;2023-06-22T06:57:52;9.50;99.90
59961;DHT22;55902;-37.980;-63.602;2023-06-22T07:00:20;9.50;99.90
59961;DHT22;55902;-37.980;-63.602;2023-06-22T07:02:47;9.40;99.90
59961;DHT22;55902;-37.980;-63.602;2023-06-22T07:05:14;9.30;99.90
59961;DHT22;55902;-37.980;-63.602;2023-06-22T07:07:41;9.30;99.90
59961;DHT22;55902;-37.980;-63.602;2023-06-22T07:10:09;9.20;99.90
59961;DHT22;55902;-37.980;-63.602;2023-06-22T07:12:36;9.10;99.90
59961;DHT22;55902;-37.980;-63.602;2023-06-22T07:15:07;9.10;99.90
59961;DHT22;55902;-37.980;-63.602;2023-06-22T07:17:35;9.00;99.90
59961;DHT22;55902;-37.980;-63.602;2023-06-22T07:20:03;8.90;99.90
59961;DHT22;55902;-37.980;-63.602;2023-06-22T07:25:58;8.80;99.90
59961;DHT22;55902;-37.980;-63.602;2023-06-22T07:28:28;8.80;99.90
59961;DHT22;55902;-37.980;-63.602;2023-06-22T07:37:55;8.60;99.90
59961;DHT22;55902;-37.980;-63.602;2023-06-22T07:40:22;8.50;99.90
59961;DHT22;55902;-37.980;-63.602;2023-06-22T07:42:49;8.50;99.90
59961;DHT22;55902;-37.980;-63.602;2023-06-22T07:45:18;8.40;99.90
59961;DHT22;55902;-37.980;-63.602;2023-06-22T07:47:45;8.30;99.90
59961;DHT22;55902;-37.980;-63.602;2023-06-22T07:50:12;8.30;99.90
59961;DHT22;55902;-37.980;-63.602;2023-06-22T07:52:39;8.30;99.90
59961;DHT22;55902;-37.980;-63.602;2023-06-22T07:55:06;8.20;99.90
59961;DHT22;55902;-37.980;-63.602;2023-06-22T07:57:33;8.20;99.90
59961;DHT22;55902;-37.980;-63.602;2023-06-22T08:00:01;8.10;99.90
59961;DHT22;55902;-37.980;-63.602;2023-06-22T08:02:30;8.10;99.90
59961;DHT22;55902;-37.980;-63.602;2023-06-22T08:04:57;8.10;99.90
59961;DHT22;55902;-37.980;-63.602;2023-06-22T08:07:24;8.00;99.90
59961;DHT22;55902;-37.980;-63.602;2023-06-22T08:09:51;8.00;99.90
59961;DHT22;55902;-37.980;-63.602;2023-06-22T08:12:19;8.00;99.90
59961;DHT22;55902;-37.980;-63.602;2023-06-22T08:14:46;8.00;99.90
59961;DHT22;55902;-37.980;-63.602;2023-06-22T08:17:13;8.00;99.90
59961;DHT22;55902;-37.980;-63.602;2023-06-22T08:19:40;7.90;99.90
59961;DHT22;55902;-37.980;-63.602;2023-06-22T08:22:07;7.90;99.90
59961;DHT22;55902;-37.980;-63.602;2023-06-22T08:24:34;7.90;99.90
59961;DHT22;55902;-37.980;-63.602;2023-06-22T08:30:23;7.80;99.90
59961;DHT22;55902;-37.980;-63.602;2023-06-22T08:32:52;7.90;99.90
59961;DHT22;55902;-37.980;-63.602;2023-06-22T08:35:21;7.90;99.90
59961;DHT22;55902;-37.980;-63.602;2023-06-22T08:48:58;7.80;99.90
59961;DHT22;55902;-37.980;-63.602;2023-06-22T08:51:25;7.80;99.90
59961;DHT22;55902;-37.980;-63.602;2023-06-22T08:53:53;7.80;99.90
59961;DHT22;55902;-37.980;-63.602;2023-06-22T08:56:20;7.80;99.90
59961;DHT22;55902;-37.980;-63.602;2023-06-22T08:58:47;7.80;99.90
59961;DHT22;55902;-37.980;-63.602;2023-06-22T09:01:14;7.80;99.90
59961;DHT22;55902;-37.980;-63.602;2023-06-22T09:03:42;7.80;99.90
59961;DHT22;55902;-37.980;-63.602;2023-06-22T09:06:09;7.80;99.90
59961;DHT22;55902;-37.980;-63.602;2023-06-22T09:08:36;7.80;99.90
59961;DHT22;55902;-37.980;-63.602;2023-06-22T09:11:03;7.80;99.90
59961;DHT22;55902;-37.980;-63.602;2023-06-22T09:13:31;7.80;99.90
59961;DHT22;55902;-37.980;-63.602;2023-06-22T09:15:58;7.80;99.90
59961;DHT22;55902;-37.980;-63.602;2023-06-22T09:18:25;7.80;99.90
59961;DHT22;55902;-37.980;-63.602;2023-06-22T09:20:53;7.90;99.90
59961;DHT22;55902;-37.980;-63.602;2023-06-22T09:23:20;7.90;99.90
59961;DHT22;55902;-37.980;-63.602;2023-06-22T09:25:47;7.90;99.90
59961;DHT22;55902;-37.980;-63.602;2023-06-22T09:28:14;7.90;99.90
59961;DHT22;55902;-37.980;-63.602;2023-06-22T09:30:43;8.00;99.90
59961;DHT22;55902;-37.980;-63.602;2023-06-22T09:33:13;8.00;99.90
59961;DHT22;55902;-37.980;-63.602;2023-06-22T09:35:44;8.00;99.90
59961;DHT22;55902;-37.980;-63.602;2023-06-22T09:38:16;8.00;99.90
59961;DHT22;55902;-37.980;-63.602;2023-06-22T09:40:43;8.00;99.90
59961;DHT22;55902;-37.980;-63.602;2023-06-22T09:43:10;8.00;99.90
59961;DHT22;55902;-37.980;-63.602;2023-06-22T09:45:38;8.10;99.90
59961;DHT22;55902;-37.980;-63.602;2023-06-22T09:48:05;8.10;99.90
59961;DHT22;55902;-37.980;-63.602;2023-06-22T09:50:32;8.10;99.90
59961;DHT22;55902;-37.980;-63.602;2023-06-22T09:52:59;8.00;99.90
59961;DHT22;55902;-37.980;-63.602;2023-06-22T09:55:26;8.10;99.90
59961;DHT22;55902;-37.980;-63.602;2023-06-22T09:57:53;8.10;99.90
59961;DHT22;55902;-37.980;-63.602;2023-06-22T10:00:22;8.10;99.90
59961;DHT22;55902;-37.980;-63.602;2023-06-22T10:02:52;8.10;99.90
59961;DHT22;55902;-37.980;-63.602;2023-06-22T10:05:20;8.20;99.90
59961;DHT22;55902;-37.980;-63.602;2023-06-22T10:07:47;8.20;99.90
59961;DHT22;55902;-37.980;-63.602;2023-06-22T10:10:14;8.20;99.90
59961;DHT22;55902;-37.980;-63.602;2023-06-22T10:12:55;8.20;99.90
59961;DHT22;55902;-37.980;-63.602;2023-06-22T10:15:22;8.20;99.90
59961;DHT22;55902;-37.980;-63.602;2023-06-22T10:17:54;8.10;99.90
59961;DHT22;55902;-37.980;-63.602;2023-06-22T10:20:28;8.00;99.90
59961;DHT22;55902;-37.980;-63.602;2023-06-22T10:22:55;7.90;99.90
59961;DHT22;55902;-37.980;-63.602;2023-06-22T10:25:24;7.80;99.90
59961;DHT22;55902;-37.980;-63.602;2023-06-22T10:27:51;7.70;99.90
59961;DHT22;55902;-37.980;-63.602;2023-06-22T10:30:18;7.70;99.90
59961;DHT22;55902;-37.980;-63.602;2023-06-22T10:32:45;7.60;99.90
59961;DHT22;55902;-37.980;-63.602;2023-06-22T10:35:12;7.60;99.90
59961;DHT22;55902;-37.980;-63.602;2023-06-22T10:37:43;7.50;99.90
59961;DHT22;55902;-37.980;-63.602;2023-06-22T10:40:12;7.50;99.90
59961;DHT22;55902;-37.980;-63.602;2023-06-22T10:42:42;7.50;99.90
59961;DHT22;55902;-37.980;-63.602;2023-06-22T10:45:10;7.60;99.90
59961;DHT22;55902;-37.980;-63.602;2023-06-22T10:47:37;7.60;99.90
59961;DHT22;55902;-37.980;-63.602;2023-06-22T10:50:05;7.60;99.90
59961;DHT22;55902;-37.980;-63.602;2023-06-22T10:52:35;7.60;99.90
59961;DHT22;55902;-37.980;-63.602;2023-06-22T10:55:03;7.60;99.90
59961;DHT22;55902;-37.980;-63.602;2023-06-22T10:57:31;7.50;99.90
59961;DHT22;55902;-37.980;-63.602;2023-06-22T10:59:58;7.50;99.90
59961;DHT22;55902;-37.980;-63.602;2023-06-22T11:02:25;7.40;99.90
59961;DHT22;55902;-37.980;-63.602;2023-06-22T11:04:54;7.40;99.90
59961;DHT22;55902;-37.980;-63.602;2023-06-22T11:07:21;7.40;99.90
59961;DHT22;55902;-37.980;-63.602;2023-06-22T11:09:48;7.40;99.90
59961;DHT22;55902;-37.980;-63.602;2023-06-22T11:12:15;7.40;99.90
59961;DHT22;55902;-37.980;-63.602;2023-06-22T11:14:42;7.50;99.90
59961;DHT22;55902;-37.980;-63.602;2023-06-22T11:17:09;7.50;99.90
59961;DHT22;55902;-37.980;-63.602;2023-06-22T11:19:37;7.60;99.90
59961;DHT22;55902;-37.980;-63.602;2023-06-22T11:22:04;7.70;99.90
59961;DHT22;55902;-37.980;-63.602;2023-06-22T11:24:31;7.70;99.90
59961;DHT22;55902;-37.980;-63.602;2023-06-22T11:27:05;7.80;99.90
59961;DHT22;55902;-37.980;-63.602;2023-06-22T11:29:33;7.90;99.90
59961;DHT22;55902;-37.980;-63.602;2023-06-22T11:32:00;7.90;99.90
59961;DHT22;55902;-37.980;-63.602;2023-06-22T11:34:28;8.00;99.90
59961;DHT22;55902;-37.980;-63.602;2023-06-22T11:36:55;8.00;99.90
59961;DHT22;55902;-37.980;-63.602;2023-06-22T11:39:22;8.00;99.90
59961;DHT22;55902;-37.980;-63.602;2023-06-22T11:41:49;8.00;99.90
59961;DHT22;55902;-37.980;-63.602;2023-06-22T11:44:16;8.00;99.90
59961;DHT22;55902;-37.980;-63.602;2023-06-22T11:46:43;8.00;99.90
59961;DHT22;55902;-37.980;-63.602;2023-06-22T11:49:10;8.00;99.90
59961;DHT22;55902;-37.980;-63.602;2023-06-22T11:51:38;8.00;99.90
59961;DHT22;55902;-37.980;-63.602;2023-06-22T11:54:05;8.00;99.90
59961;DHT22;55902;-37.980;-63.602;2023-06-22T11:56:33;8.00;99.90
59961;DHT22;55902;-37.980;-63.602;2023-06-22T11:59:00;7.90;99.90
59961;DHT22;55902;-37.980;-63.602;2023-06-22T12:01:34;7.90;99.90
59961;DHT22;55902;-37.980;-63.602;2023-06-22T12:04:02;7.90;99.90
59961;DHT22;55902;-37.980;-63.602;2023-06-22T12:06:37;7.90;99.90
59961;DHT22;55902;-37.980;-63.602;2023-06-22T12:09:08;7.90;99.90
59961;DHT22;55902;-37.980;-63.602;2023-06-22T12:11:35;7.80;99.90
59961;DHT22;55902;-37.980;-63.602;2023-06-22T12:14:02;7.80;99.90
59961;DHT22;55902;-37.980;-63.602;2023-06-22T12:16:29;7.80;99.90
59961;DHT22;55902;-37.980;-63.602;2023-06-22T12:18:56;7.80;99.90
59961;DHT22;55902;-37.980;-63.602;2023-06-22T12:21:23;7.80;99.90
59961;DHT22;55902;-37.980;-63.602;2023-06-22T12:23:50;7.80;99.90
59961;DHT22;55902;-37.980;-63.602;2023-06-22T12:26:17;7.80;99.90
59961;DHT22;55902;-37.980;-63.602;2023-06-22T12:28:45;7.80;99.90
59961;DHT22;55902;-37.980;-63.602;2023-06-22T12:31:12;7.80;99.90
59961;DHT22;55902;-37.980;-63.602;2023-06-22T12:34:03;7.90;99.90
59961;DHT22;55902;-37.980;-63.602;2023-06-22T12:36:30;7.80;99.90
59961;DHT22;55902;-37.980;-63.602;2023-06-22T12:38:59;7.90;99.90
59961;DHT22;55902;-37.980;-63.602;2023-06-22T12:41:26;7.90;99.90
59961;DHT22;55902;-37.980;-63.602;2023-06-22T12:43:53;7.90;99.90
59961;DHT22;55902;-37.980;-63.602;2023-06-22T12:46:21;7.90;99.90
59961;DHT22;55902;-37.980;-63.602;2023-06-22T12:48:48;8.00;99.90
59961;DHT22;55902;-37.980;-63.602;2023-06-22T12:51:21;8.00;99.90
59961;DHT22;55902;-37.980;-63.602;2023-06-22T12:53:49;8.00;99.90
59961;DHT22;55902;-37.980;-63.602;2023-06-22T12:56:16;8.10;99.90
59961;DHT22;55902;-37.980;-63.602;2023-06-22T12:58:43;8.10;99.90
59961;DHT22;55902;-37.980;-63.602;2023-06-22T13:01:10;8.10;99.90
59961;DHT22;55902;-37.980;-63.602;2023-06-22T13:03:37;8.10;99.90
59961;DHT22;55902;-37.980;-63.602;2023-06-22T13:06:04;8.10;99.90
59961;DHT22;55902;-37.980;-63.602;2023-06-22T13:08:35;8.10;99.90
59961;DHT22;55902;-37.980;-63.602;2023-06-22T13:11:05;8.10;99.90
59961;DHT22;55902;-37.980;-63.602;2023-06-22T13:13:36;8.20;99.90
59961;DHT22;55902;-37.980;-63.602;2023-06-22T13:16:10;8.20;99.90
59961;DHT22;55902;-37.980;-63.602;2023-06-22T13:18:38;8.20;99.90
59961;DHT22;55902;-37.980;-63.602;2023-06-22T13:21:08;8.30;99.90
59961;DHT22;55902;-37.980;-63.602;2023-06-22T13:23:35;8.30;99.90
59961;DHT22;55902;-37.980;-63.602;2023-06-22T13:26:03;8.30;99.90
59961;DHT22;55902;-37.980;-63.602;2023-06-22T13:28:30;8.40;99.90
59961;DHT22;55902;-37.980;-63.602;2023-06-22T13:30:57;8.40;99.90
59961;DHT22;55902;-37.980;-63.602;2023-06-22T13:33:24;8.50;99.90
59961;DHT22;55902;-37.980;-63.602;2023-06-22T13:35:51;8.50;99.90
59961;DHT22;55902;-37.980;-63.602;2023-06-22T13:38:18;8.60;99.90
59961;DHT22;55902;-37.980;-63.602;2023-06-22T13:40:45;8.60;99.90
59961;DHT22;55902;-37.980;-63.602;2023-06-22T13:43:14;8.60;99.90
59961;DHT22;55902;-37.980;-63.602;2023-06-22T13:45:42;8.70;99.90
59961;DHT22;55902;-37.980;-63.602;2023-06-22T13:48:12;8.70;99.90
59961;DHT22;55902;-37.980;-63.602;2023-06-22T13:50:39;8.70;99.90
59961;DHT22;55902;-37.980;-63.602;2023-06-22T13:53:09;8.70;99.90
59961;DHT22;55902;-37.980;-63.602;2023-06-22T13:55:36;8.80;99.90
59961;DHT22;55902;-37.980;-63.602;2023-06-22T13:58:03;8.90;99.90
59961;DHT22;55902;-37.980;-63.602;2023-06-22T14:00:30;8.80;99.90
59961;DHT22;55902;-37.980;-63.602;2023-06-22T14:02:57;8.90;99.90
59961;DHT22;55902;-37.980;-63.602;2023-06-22T14:05:24;8.90;99.90
59961;DHT22;55902;-37.980;-63.602;2023-06-22T14:07:51;9.00;99.90
59961;DHT22;55902;-37.980;-63.602;2023-06-22T14:10:18;9.00;99.90
59961;DHT22;55902;-37.980;-63.602;2023-06-22T14:12:46;9.00;99.90
59961;DHT22;55902;-37.980;-63.602;2023-06-22T14:15:16;9.00;99.90
59961;DHT22;55902;-37.980;-63.602;2023-06-22T14:17:43;9.10;99.90
59961;DHT22;55902;-37.980;-63.602;2023-06-22T14:20:10;9.10;99.90
59961;DHT22;55902;-37.980;-63.602;2023-06-22T14:22:37;9.10;99.90
59961;DHT22;55902;-37.980;-63.602;2023-06-22T14:25:08;9.10;99.90
59961;DHT22;55902;-37.980;-63.602;2023-06-22T14:27:35;9.20;99.90
59961;DHT22;55902;-37.980;-63.602;2023-06-22T14:30:06;9.30;99.90
59961;DHT22;55902;-37.980;-63.602;2023-06-22T14:32:34;9.40;99.90
59961;DHT22;55902;-37.980;-63.602;2023-06-22T14:35:01;9.50;99.90
59961;DHT22;55902;-37.980;-63.602;2023-06-22T14:37:28;9.50;99.90
59961;DHT22;55902;-37.980;-63.602;2023-06-22T14:39:55;9.60;99.90
59961;DHT22;55902;-37.980;-63.602;2023-06-22T14:42:22;9.60;99.90
59961;DHT22;55902;-37.980;-63.602;2023-06-22T14:44:49;9.70;99.90
59961;DHT22;55902;-37.980;-63.602;2023-06-22T14:47:20;9.70;99.90
59961;DHT22;55902;-37.980;-63.602;2023-06-22T14:49:49;9.60;99.90
59961;DHT22;55902;-37.980;-63.602;2023-06-22T14:52:16;9.60;99.90
59961;DHT22;55902;-37.980;-63.602;2023-06-22T14:54:43;9.70;99.90
59961;DHT22;55902;-37.980;-63.602;2023-06-22T14:57:10;9.80;99.90
59961;DHT22;55902;-37.980;-63.602;2023-06-22T14:59:37;9.90;99.90
59961;DHT22;55902;-37.980;-63.602;2023-06-22T15:02:05;9.90;99.90
59961;DHT22;55902;-37.980;-63.602;2023-06-22T15:04:32;9.90;99.90
59961;DHT22;55902;-37.980;-63.602;2023-06-22T15:07:01;9.90;99.90
59961;DHT22;55902;-37.980;-63.602;2023-06-22T15:09:28;10.00;99.90
59961;DHT22;55902;-37.980;-63.602;2023-06-22T15:11:58;10.00;99.90
59961;DHT22;55902;-37.980;-63.602;2023-06-22T15:14:27;10.10;99.90
59961;DHT22;55902;-37.980;-63.602;2023-06-22T15:16:56;10.20;99.90
59961;DHT22;55902;-37.980;-63.602;2023-06-22T15:19:27;10.20;99.90
59961;DHT22;55902;-37.980;-63.602;2023-06-22T15:21:54;10.30;99.90
59961;DHT22;55902;-37.980;-63.602;2023-06-22T15:24:21;10.30;99.90
59961;DHT22;55902;-37.980;-63.602;2023-06-22T15:26:51;10.40;99.90
59961;DHT22;55902;-37.980;-63.602;2023-06-22T15:29:24;10.50;99.90
59961;DHT22;55902;-37.980;-63.602;2023-06-22T15:31:52;10.40;99.90
59961;DHT22;55902;-37.980;-63.602;2023-06-22T15:34:19;10.50;99.90
59961;DHT22;55902;-37.980;-63.602;2023-06-22T15:36:46;10.40;99.90
59961;DHT22;55902;-37.980;-63.602;2023-06-22T15:39:13;10.30;99.90
59961;DHT22;55902;-37.980;-63.602;2023-06-22T15:41:41;10.30;99.90
59961;DHT22;55902;-37.980;-63.602;2023-06-22T15:44:08;10.30;99.90
59961;DHT22;55902;-37.980;-63.602;2023-06-22T15:46:35;10.30;99.90
59961;DHT22;55902;-37.980;-63.602;2023-06-22T15:49:04;10.40;99.90
59961;DHT22;55902;-37.980;-63.602;2023-06-22T15:51:32;10.40;99.90
59961;DHT22;55902;-37.980;-63.602;2023-06-22T15:53:59;10.40;99.90
59961;DHT22;55902;-37.980;-63.602;2023-06-22T15:56:26;10.50;99.90
59961;DHT22;55902;-37.980;-63.602;2023-06-22T15:58:53;10.70;99.90
59961;DHT22;55902;-37.980;-63.602;2023-06-22T16:01:22;10.80;99.90
59961;DHT22;55902;-37.980;-63.602;2023-06-22T16:03:52;11.00;99.90
59961;DHT22;55902;-37.980;-63.602;2023-06-22T16:06:19;11.10;99.90
59961;DHT22;55902;-37.980;-63.602;2023-06-22T16:08:47;11.20;99.90
59961;DHT22;55902;-37.980;-63.602;2023-06-22T16:11:14;11.20;99.90
59961;DHT22;55902;-37.980;-63.602;2023-06-22T16:13:41;11.20;99.90
59961;DHT22;55902;-37.980;-63.602;2023-06-22T16:16:08;11.20;99.90
59961;DHT22;55902;-37.980;-63.602;2023-06-22T16:18:35;11.20;99.90
59961;DHT22;55902;-37.980;-63.602;2023-06-22T16:21:02;11.30;99.90
59961;DHT22;55902;-37.980;-63.602;2023-06-22T16:23:31;11.60;99.90
59961;DHT22;55902;-37.980;-63.602;2023-06-22T16:25:58;11.70;99.90
59961;DHT22;55902;-37.980;-63.602;2023-06-22T16:28:25;11.80;99.90